Time;durP1;ratioP1;P1;durP2;ratioP2;P2;SDS_P1;SDS_P2;PMS_P1;PMS_P2;Temp;Humidity;BMP_temperature;BMP_pressure;BME280_temperature;BME280_humidity;BME280_pressure;Samples;Min_cycle;Max_cycle;Signal;HPM_P1;HPM_P2
2021/05/09 00:02:00;;;;;;;7.10;2.92;;;13.40;89.00;;;;;;4988117;28;20045;-85
2021/05/09 00:04:26;;;;;;;8.65;2.80;;;13.30;89.00;;;;;;4992541;28;20038;-85
2021/05/09 00:06:53;;;;;;;9.02;2.75;;;13.30;89.30;;;;;;4990176;28;20033;-85
2021/05/09 00:09:19;;;;;;;9.98;3.17;;;13.20;89.40;;;;;;5015884;28;20031;-85
2021/05/09 00:11:44;;;;;;;4.95;2.72;;;13.20;89.60;;;;;;5031131;28;20113;-85
2021/05/09 00:14:10;;;;;;;8.50;3.15;;;13.10;89.70;;;;;;5015662;28;20072;-85
2021/05/09 00:16:37;;;;;;;4.97;2.60;;;13.10;89.80;;;;;;5001749;28;20019;-85
2021/05/09 00:19:04;;;;;;;6.47;2.70;;;13.10;89.80;;;;;;5008235;28;20067;-85
2021/05/09 00:21:30;;;;;;;5.25;2.53;;;13.00;89.80;;;;;;4993756;28;20030;-84
2021/05/09 00:23:55;;;;;;;5.65;2.58;;;13.00;90.00;;;;;;4990809;28;20095;-85
2021/05/09 00:26:21;;;;;;;5.72;2.88;;;13.00;90.00;;;;;;5022444;28;20022;-85
2021/05/09 00:28:46;;;;;;;4.85;2.30;;;12.90;90.00;;;;;;5016736;28;20113;-85
2021/05/09 00:31:12;;;;;;;7.05;2.80;;;12.90;90.10;;;;;;5012814;28;20058;-85
2021/05/09 00:33:37;;;;;;;7.05;2.83;;;12.90;90.10;;;;;;4990758;28;20043;-85
2021/05/09 00:36:03;;;;;;;6.45;2.90;;;12.90;90.10;;;;;;5015747;28;20030;-86
2021/05/09 00:38:29;;;;;;;6.85;2.60;;;12.80;90.10;;;;;;4991460;28;20363;-85
2021/05/09 00:40:54;;;;;;;7.68;3.60;;;12.80;90.20;;;;;;5033288;28;20386;-85
2021/05/09 00:43:20;;;;;;;9.98;3.78;;;12.70;90.30;;;;;;5009278;28;20038;-85
2021/05/09 00:45:46;;;;;;;4.45;2.67;;;12.80;90.40;;;;;;5005044;28;20022;-86
2021/05/09 00:48:11;;;;;;;6.32;2.95;;;12.70;90.40;;;;;;4994505;28;20121;-85
2021/05/09 00:50:38;;;;;;;4.82;2.60;;;12.70;90.40;;;;;;4989573;28;20473;-86
2021/05/09 00:53:07;;;;;;;5.82;2.60;;;12.70;90.40;;;;;;5031844;28;20425;-85
2021/05/09 00:55:34;;;;;;;6.90;2.95;;;12.70;90.50;;;;;;4990228;28;20029;-85
2021/05/09 00:58:00;;;;;;;7.18;3.53;;;12.70;90.50;;;;;;4995306;28;20018;-85
2021/05/09 01:00:26;;;;;;;5.38;2.72;;;12.70;90.50;;;;;;5012968;28;20470;-85
2021/05/09 01:02:52;;;;;;;4.60;3.13;;;12.70;90.60;;;;;;4984565;28;20042;-85
2021/05/09 01:05:18;;;;;;;7.18;3.00;;;12.60;90.60;;;;;;4991856;28;20034;-85
2021/05/09 01:07:43;;;;;;;9.38;3.28;;;12.70;90.60;;;;;;4993884;28;20568;-85
2021/05/09 01:10:12;;;;;;;7.43;2.50;;;12.60;90.60;;;;;;4990411;28;20024;-85
2021/05/09 01:12:37;;;;;;;6.93;2.83;;;12.60;90.60;;;;;;4989874;28;20033;-85
2021/05/09 01:15:05;;;;;;;5.00;2.88;;;12.70;90.70;;;;;;5010914;28;20121;-85
2021/05/09 01:17:31;;;;;;;4.55;2.58;;;12.60;90.60;;;;;;5013388;28;20057;-85
2021/05/09 01:20:07;;;;;;;4.80;2.83;;;12.60;90.70;;;;;;5002877;28;20061;-85
2021/05/09 01:22:32;;;;;;;7.53;2.90;;;12.60;90.70;;;;;;4998024;28;20830;-85
2021/05/09 01:24:58;;;;;;;7.20;3.55;;;12.60;90.70;;;;;;5026010;28;20059;-85
2021/05/09 01:27:23;;;;;;;5.53;2.63;;;12.60;90.70;;;;;;4987202;28;20068;-85
2021/05/09 01:29:49;;;;;;;8.20;3.28;;;12.50;90.80;;;;;;4999780;28;20072;-85
2021/05/09 01:32:15;;;;;;;9.30;3.10;;;12.50;90.80;;;;;;5037173;28;20042;-85
2021/05/09 01:34:40;;;;;;;5.82;3.08;;;12.50;90.80;;;;;;4990584;28;20038;-85
2021/05/09 01:37:06;;;;;;;5.20;2.97;;;12.50;90.90;;;;;;5001961;28;20080;-85
2021/05/09 01:39:32;;;;;;;6.28;2.90;;;12.50;90.90;;;;;;5000775;28;20211;-85
2021/05/09 01:42:00;;;;;;;7.50;3.42;;;12.60;90.90;;;;;;5017291;28;20498;-85
2021/05/09 01:44:26;;;;;;;7.10;3.20;;;12.60;90.90;;;;;;5027742;28;20099;-85
2021/05/09 01:46:51;;;;;;;9.55;3.35;;;12.60;90.90;;;;;;5007143;28;20141;-85
2021/05/09 01:49:17;;;;;;;9.85;2.83;;;12.60;90.90;;;;;;5011122;28;20024;-85
2021/05/09 01:51:42;;;;;;;5.75;3.15;;;12.50;90.90;;;;;;5038062;28;20061;-86
2021/05/09 01:54:08;;;;;;;6.28;2.85;;;12.60;90.90;;;;;;4997819;28;20016;-85
2021/05/09 01:56:33;;;;;;;5.22;3.03;;;12.60;90.90;;;;;;5014935;28;20370;-85
2021/05/09 01:58:59;;;;;;;9.48;3.15;;;12.60;90.90;;;;;;5039833;28;20033;-85
2021/05/09 02:01:24;;;;;;;6.20;2.72;;;12.50;90.80;;;;;;5034946;28;20035;-85
2021/05/09 02:03:51;;;;;;;7.47;3.40;;;12.50;90.80;;;;;;5024622;28;20054;-85
2021/05/09 02:06:16;;;;;;;6.70;3.63;;;12.50;90.90;;;;;;5001260;28;20026;-86
2021/05/09 02:08:42;;;;;;;4.95;3.35;;;12.50;90.90;;;;;;5015216;28;20186;-85
2021/05/09 02:11:07;;;;;;;9.32;3.20;;;12.40;91.00;;;;;;5017937;28;20033;-85
2021/05/09 02:13:33;;;;;;;7.95;3.38;;;12.50;91.00;;;;;;5010468;28;20038;-85
2021/05/09 02:15:58;;;;;;;7.78;3.63;;;12.50;91.10;;;;;;5013564;28;20363;-86
2021/05/09 02:18:24;;;;;;;7.80;3.63;;;12.50;91.00;;;;;;4994915;28;20485;-85
2021/05/09 02:20:49;;;;;;;5.75;3.53;;;12.40;91.00;;;;;;5004399;28;20030;-85
2021/05/09 02:23:15;;;;;;;6.72;3.75;;;12.40;91.00;;;;;;5018594;28;20369;-85
2021/05/09 02:25:40;;;;;;;9.82;3.50;;;12.40;91.10;;;;;;5013575;28;20023;-86
2021/05/09 02:28:06;;;;;;;7.45;3.80;;;12.40;91.10;;;;;;5009927;28;20035;-85
2021/05/09 02:30:31;;;;;;;6.05;3.35;;;12.40;91.10;;;;;;5013705;28;20076;-85
2021/05/09 02:32:57;;;;;;;6.72;3.30;;;12.30;91.10;;;;;;5004079;28;20041;-85
2021/05/09 02:35:22;;;;;;;8.13;4.78;;;12.40;91.10;;;;;;5001626;28;20082;-86
2021/05/09 02:37:48;;;;;;;4.68;2.78;;;12.30;91.10;;;;;;5001409;28;20058;-86
2021/05/09 02:40:14;;;;;;;6.47;3.55;;;12.30;91.10;;;;;;5005489;28;20029;-86
2021/05/09 02:42:39;;;;;;;5.30;3.67;;;12.30;91.10;;;;;;4993214;28;20091;-85
2021/05/09 02:45:06;;;;;;;6.85;3.83;;;12.20;91.20;;;;;;5023165;28;20030;-85
2021/05/09 02:47:32;;;;;;;6.53;3.63;;;12.20;91.20;;;;;;4988513;28;20027;-86
2021/05/09 02:50:07;;;;;;;8.75;4.00;;;12.20;91.20;;;;;;5016346;28;20069;-85
2021/05/09 02:52:33;;;;;;;7.95;4.15;;;12.20;91.20;;;;;;5030733;28;20478;-86
2021/05/09 02:54:59;;;;;;;9.13;4.18;;;12.10;91.30;;;;;;5014145;28;20034;-85
2021/05/09 02:57:24;;;;;;;8.85;4.47;;;12.20;91.30;;;;;;5012270;28;20027;-85
2021/05/09 02:59:50;;;;;;;7.20;4.18;;;12.20;91.40;;;;;;5002749;28;20223;-85
2021/05/09 03:02:15;;;;;;;7.63;3.53;;;12.20;91.30;;;;;;5001719;28;20129;-86
2021/05/09 03:04:41;;;;;;;7.60;4.03;;;12.20;91.30;;;;;;5028790;28;20054;-85
2021/05/09 03:07:06;;;;;;;8.32;4.25;;;12.20;91.30;;;;;;5018806;28;20035;-86
2021/05/09 03:09:32;;;;;;;8.73;4.22;;;12.20;91.30;;;;;;5003026;28;20026;-86
2021/05/09 03:11:59;;;;;;;8.48;3.60;;;12.20;91.30;;;;;;5007927;28;20129;-85
2021/05/09 03:14:24;;;;;;;4.43;3.30;;;12.10;91.30;;;;;;5004940;28;20027;-85
2021/05/09 03:16:50;;;;;;;4.60;3.25;;;12.10;91.40;;;;;;5001199;28;20057;-85
2021/05/09 03:19:16;;;;;;;7.43;3.40;;;12.10;91.40;;;;;;5006100;28;20020;-86
2021/05/09 03:21:42;;;;;;;5.35;3.15;;;12.10;91.40;;;;;;5026178;28;20024;-86
2021/05/09 03:24:09;;;;;;;5.70;3.42;;;12.10;91.40;;;;;;4997624;28;20037;-85
2021/05/09 03:26:35;;;;;;;4.88;3.13;;;12.10;91.40;;;;;;4988675;28;20424;-86
2021/05/09 03:29:01;;;;;;;4.68;3.15;;;12.10;91.40;;;;;;5009350;28;20084;-86
2021/05/09 03:31:26;;;;;;;7.10;3.67;;;12.10;91.40;;;;;;4987951;28;20080;-85
2021/05/09 03:33:52;;;;;;;5.78;3.47;;;12.10;91.50;;;;;;4991957;28;20482;-86
2021/05/09 03:36:17;;;;;;;7.80;4.10;;;12.10;91.60;;;;;;5013454;28;20022;-85
2021/05/09 03:38:43;;;;;;;9.48;3.47;;;12.00;91.50;;;;;;5005580;28;20030;-85
2021/05/09 03:41:08;;;;;;;9.10;4.00;;;12.00;91.80;;;;;;5018215;28;20037;-86
2021/05/09 03:43:34;;;;;;;5.75;4.10;;;11.90;91.60;;;;;;5026139;28;20026;-85
2021/05/09 03:45:59;;;;;;;7.43;4.15;;;11.80;91.70;;;;;;5010433;28;20058;-85
2021/05/09 03:48:25;;;;;;;9.88;4.47;;;11.70;91.80;;;;;;5004103;28;20030;-86
2021/05/09 03:50:50;;;;;;;9.18;4.25;;;11.60;91.80;;;;;;4985730;28;20018;-86
2021/05/09 03:53:16;;;;;;;6.60;3.78;;;11.50;92.00;;;;;;4988341;28;20026;-86
2021/05/09 03:55:41;;;;;;;9.38;4.68;;;11.50;92.00;;;;;;5001499;28;20022;-85
2021/05/09 03:58:07;;;;;;;7.10;4.75;;;11.50;92.10;;;;;;5004395;28;20429;-86
2021/05/09 04:00:33;;;;;;;8.32;4.00;;;11.40;92.10;;;;;;4987366;28;20033;-85
2021/05/09 04:02:58;;;;;;;7.25;4.28;;;11.40;92.20;;;;;;4988561;28;20038;-86
2021/05/09 04:05:24;;;;;;;7.35;4.35;;;11.40;92.30;;;;;;5029556;28;20046;-85
2021/05/09 04:07:49;;;;;;;8.10;4.47;;;11.30;92.40;;;;;;5016894;28;20022;-86
2021/05/09 04:10:15;;;;;;;6.82;4.22;;;11.40;92.50;;;;;;5003832;28;20024;-85
2021/05/09 04:12:40;;;;;;;8.82;4.72;;;11.40;92.40;;;;;;5006019;28;20038;-86
2021/05/09 04:15:07;;;;;;;7.15;4.85;;;11.40;92.40;;;;;;4993913;28;20033;-86
2021/05/09 04:17:32;;;;;;;8.07;4.82;;;11.30;92.40;;;;;;5017608;28;20027;-85
2021/05/09 04:19:58;;;;;;;8.75;4.95;;;11.30;92.50;;;;;;5028780;28;20027;-85
2021/05/09 04:22:23;;;;;;;8.23;5.63;;;11.30;92.60;;;;;;4991212;28;20043;-86
2021/05/09 04:24:49;;;;;;;6.95;4.82;;;11.30;92.60;;;;;;4985497;28;20030;-86
2021/05/09 04:27:14;;;;;;;8.10;5.05;;;11.30;92.60;;;;;;4984363;28;20034;-85
2021/05/09 04:29:40;;;;;;;7.47;5.40;;;11.30;92.70;;;;;;5067086;28;20026;-85
2021/05/09 04:32:06;;;;;;;11.40;5.95;;;11.30;92.70;;;;;;4997660;28;20027;-85
2021/05/09 04:34:31;;;;;;;9.15;5.50;;;11.30;93.00;;;;;;5010864;28;20103;-85
2021/05/09 04:36:57;;;;;;;7.40;5.43;;;11.30;92.70;;;;;;5062702;28;20102;-85
2021/05/09 04:39:23;;;;;;;12.45;6.45;;;11.30;92.70;;;;;;4996917;28;20107;-85
2021/05/09 04:41:48;;;;;;;10.50;6.65;;;11.30;92.70;;;;;;5010892;28;20532;-85
2021/05/09 04:44:14;;;;;;;11.73;7.45;;;11.40;92.80;;;;;;5006938;28;20091;-85
2021/05/09 04:46:40;;;;;;;11.35;6.57;;;11.40;92.80;;;;;;4994858;28;20080;-85
2021/05/09 04:49:06;;;;;;;11.75;6.93;;;11.40;92.80;;;;;;4979123;28;20080;-85
2021/05/09 04:51:32;;;;;;;9.52;6.32;;;11.50;92.80;;;;;;4999655;28;20034;-85
2021/05/09 04:53:58;;;;;;;10.88;6.55;;;11.60;92.80;;;;;;4992641;28;20510;-85
2021/05/09 04:56:24;;;;;;;12.30;6.55;;;11.60;92.80;;;;;;4983316;28;20026;-86
2021/05/09 04:58:50;;;;;;;7.72;5.72;;;11.70;92.80;;;;;;4990575;28;20079;-86
2021/05/09 05:01:15;;;;;;;10.95;6.18;;;11.70;92.80;;;;;;4988651;28;20038;-85
2021/05/09 05:03:43;;;;;;;9.15;6.50;;;11.80;92.80;;;;;;4989198;28;20034;-85
2021/05/09 05:06:09;;;;;;;8.15;6.32;;;11.90;92.80;;;;;;4984222;28;20027;-85
2021/05/09 05:08:34;;;;;;;11.88;7.03;;;12.00;92.70;;;;;;4982355;28;20030;-86
2021/05/09 05:11:01;;;;;;;11.90;6.07;;;12.20;92.70;;;;;;4985928;28;20031;-85
2021/05/09 05:13:31;;;;;;;13.93;6.82;;;12.30;92.50;;;;;;4984691;28;20027;-85
2021/05/09 05:15:57;;;;;;;10.18;5.68;;;12.50;92.40;;;;;;4990945;28;20402;-85
2021/05/09 05:18:24;;;;;;;9.05;6.22;;;12.60;92.30;;;;;;4992820;28;20031;-86
2021/05/09 05:20:55;;;;;;;9.02;5.95;;;12.70;92.20;;;;;;4990839;28;20109;-85
2021/05/09 05:23:21;;;;;;;7.93;5.72;;;12.80;92.10;;;;;;4992366;28;20053;-85
2021/05/09 05:25:48;;;;;;;9.30;5.63;;;12.90;92.00;;;;;;4992233;28;20057;-84
2021/05/09 05:28:13;;;;;;;8.40;5.47;;;13.00;91.90;;;;;;4985333;28;20046;-86
2021/05/09 05:30:39;;;;;;;8.10;6.25;;;13.10;91.80;;;;;;4988866;28;20019;-85
2021/05/09 05:33:06;;;;;;;10.43;5.72;;;13.20;91.70;;;;;;4991225;28;20035;-85
2021/05/09 05:35:32;;;;;;;7.68;5.88;;;13.30;91.60;;;;;;4991539;28;20386;-85
2021/05/09 05:37:58;;;;;;;6.30;5.30;;;13.40;91.40;;;;;;4987226;28;20092;-85
2021/05/09 05:40:24;;;;;;;7.35;5.60;;;13.40;91.20;;;;;;4990618;28;20022;-85
2021/05/09 05:42:50;;;;;;;6.38;5.57;;;13.40;91.10;;;;;;4993701;28;20030;-85
2021/05/09 05:45:16;;;;;;;10.48;6.50;;;13.40;91.00;;;;;;4992464;28;20023;-85
2021/05/09 05:47:42;;;;;;;7.35;5.60;;;13.50;91.00;;;;;;4993973;28;20113;-85
2021/05/09 05:50:08;;;;;;;8.90;5.68;;;13.40;91.00;;;;;;4989984;28;20061;-84
2021/05/09 05:52:34;;;;;;;6.97;6.03;;;13.40;90.90;;;;;;4989099;28;20042;-85
2021/05/09 05:55:00;;;;;;;9.05;5.28;;;13.40;90.90;;;;;;4992625;28;20026;-86
2021/05/09 05:57:26;;;;;;;8.73;5.40;;;13.50;90.90;;;;;;4992229;28;20104;-84
2021/05/09 05:59:52;;;;;;;10.63;5.93;;;13.60;90.80;;;;;;4992712;28;20054;-84
2021/05/09 06:02:17;;;;;;;9.38;5.25;;;13.60;90.80;;;;;;4989121;28;20034;-85
2021/05/09 06:04:43;;;;;;;8.70;5.40;;;13.80;90.70;;;;;;4993322;28;20460;-84
2021/05/09 06:07:09;;;;;;;7.07;5.20;;;13.90;90.50;;;;;;4983099;28;20034;-85
2021/05/09 06:09:35;;;;;;;10.63;4.85;;;14.10;90.40;;;;;;4981332;28;20390;-86
2021/05/09 06:12:02;;;;;;;7.72;4.57;;;14.30;90.10;;;;;;5015362;28;20034;-86
2021/05/09 06:14:28;;;;;;;6.80;5.18;;;14.50;89.80;;;;;;5001769;28;20022;-85
2021/05/09 06:16:53;;;;;;;5.97;4.60;;;14.50;89.40;;;;;;4984402;28;20034;-85
2021/05/09 06:19:19;;;;;;;6.25;3.92;;;14.60;89.20;;;;;;5004462;28;20478;-85
2021/05/09 06:21:45;;;;;;;8.13;4.85;;;14.60;88.90;;;;;;4992946;28;20034;-86
2021/05/09 06:24:10;;;;;;;8.43;4.65;;;14.70;88.90;;;;;;4987188;28;20027;-86
2021/05/09 06:26:36;;;;;;;4.97;4.03;;;14.80;88.80;;;;;;5009630;28;20063;-86
2021/05/09 06:29:02;;;;;;;8.50;4.50;;;15.00;88.60;;;;;;4992861;28;20359;-86
2021/05/09 06:31:27;;;;;;;6.90;4.60;;;15.20;88.00;;;;;;4993452;28;20093;-86
2021/05/09 06:33:52;;;;;;;9.43;4.45;;;15.40;87.50;;;;;;4991694;28;20037;-86
2021/05/09 06:36:18;;;;;;;5.95;4.43;;;15.50;87.10;;;;;;4992500;28;20030;-86
2021/05/09 06:38:44;;;;;;;5.50;3.80;;;15.70;86.40;;;;;;4991103;28;20026;-86
2021/05/09 06:41:09;;;;;;;8.00;3.97;;;15.90;85.80;;;;;;4988537;28;20027;-87
2021/05/09 06:43:35;;;;;;;5.15;3.15;;;16.00;85.20;;;;;;4996038;28;20042;-87
2021/05/09 06:46:01;;;;;;;6.82;3.40;;;16.20;84.40;;;;;;4987029;28;20471;-87
2021/05/09 06:48:27;;;;;;;6.72;3.45;;;16.40;84.10;;;;;;4986225;28;20031;-87
2021/05/09 06:50:52;;;;;;;4.28;3.10;;;16.50;83.50;;;;;;4992765;28;20037;-85
2021/05/09 06:53:18;;;;;;;5.25;3.22;;;16.70;83.10;;;;;;4988679;28;20577;-87
2021/05/09 06:55:45;;;;;;;4.80;3.15;;;16.90;82.50;;;;;;4992213;28;20131;-85
2021/05/09 06:58:11;;;;;;;5.43;3.30;;;17.10;81.50;;;;;;4993423;28;20068;-86
2021/05/09 07:00:37;;;;;;;5.78;2.47;;;17.20;81.00;;;;;;4987444;28;20033;-87
2021/05/09 07:03:03;;;;;;;5.50;2.35;;;17.30;80.30;;;;;;5003425;28;20047;-86
2021/05/09 07:05:29;;;;;;;3.90;2.03;;;17.50;79.60;;;;;;4989733;28;20139;-87
2021/05/09 07:07:56;;;;;;;4.97;2.70;;;17.50;79.10;;;;;;4991498;28;20522;-87
2021/05/09 07:10:26;;;;;;;3.10;2.33;;;17.60;78.50;;;;;;4991501;28;20038;-87
2021/05/09 07:12:54;;;;;;;4.53;1.83;;;17.70;78.00;;;;;;4991469;28;20080;-87
2021/05/09 07:15:33;;;;;;;4.70;1.80;;;17.80;77.60;;;;;;4987568;28;20030;-86
2021/05/09 07:18:10;;;;;;;4.28;1.45;;;17.90;77.20;;;;;;4990621;28;20397;-85
2021/05/09 07:20:40;;;;;;;5.55;1.63;;;18.10;76.60;;;;;;4986556;28;20041;-85
2021/05/09 07:23:07;;;;;;;4.00;1.80;;;18.20;75.30;;;;;;4983667;28;20038;-86
2021/05/09 07:25:33;;;;;;;5.00;1.67;;;18.40;75.10;;;;;;4983805;28;20029;-87
2021/05/09 07:28:06;;;;;;;4.85;1.92;;;18.60;74.40;;;;;;4987190;28;20385;-87
2021/05/09 07:30:33;;;;;;;5.53;2.15;;;18.70;73.10;;;;;;4981938;28;20031;-87
2021/05/09 07:32:58;;;;;;;5.97;1.92;;;18.70;73.20;;;;;;4986292;28;20019;-87
2021/05/09 07:35:24;;;;;;;4.07;1.63;;;18.70;73.20;;;;;;4979044;28;20104;-87
2021/05/09 07:37:50;;;;;;;5.40;2.05;;;18.70;73.10;;;;;;4986014;28;20029;-88
2021/05/09 07:40:15;;;;;;;3.10;1.88;;;18.60;73.20;;;;;;4990462;28;20030;-86
2021/05/09 07:42:41;;;;;;;3.38;1.52;;;18.70;73.10;;;;;;4985198;28;20084;-87
2021/05/09 07:45:13;;;;;;;2.65;1.92;;;18.70;73.10;;;;;;4989438;28;20105;-87
2021/05/09 07:47:39;;;;;;;4.38;1.90;;;18.80;72.80;;;;;;4988123;28;20042;-87
2021/05/09 07:50:05;;;;;;;5.38;2.00;;;18.80;73.00;;;;;;4984090;28;20034;-87
2021/05/09 07:52:30;;;;;;;3.78;1.80;;;18.90;73.80;;;;;;4980834;28;20386;-86
2021/05/09 07:54:56;;;;;;;3.95;1.55;;;19.00;72.80;;;;;;4988495;28;20386;-87
2021/05/09 07:57:21;;;;;;;3.10;1.42;;;19.00;72.90;;;;;;4990921;28;20022;-86
2021/05/09 07:59:47;;;;;;;4.55;1.25;;;19.20;73.20;;;;;;4987861;28;20044;-86
2021/05/09 08:02:12;;;;;;;3.00;1.27;;;19.40;72.60;;;;;;4984109;28;20038;-86
2021/05/09 08:04:39;;;;;;;2.65;1.38;;;19.60;71.80;;;;;;4988717;28;20521;-87
2021/05/09 08:07:05;;;;;;;3.13;1.00;;;19.80;71.50;;;;;;4985379;28;20133;-86
2021/05/09 08:09:30;;;;;;;2.53;1.10;;;20.00;69.80;;;;;;4990011;28;20435;-86
2021/05/09 08:11:56;;;;;;;2.95;1.38;;;20.10;70.20;;;;;;4989601;28;20111;-88
2021/05/09 08:14:21;;;;;;;2.05;1.20;;;20.20;69.30;;;;;;4984543;28;20018;-87
2021/05/09 08:16:47;;;;;;;3.13;1.08;;;20.30;69.00;;;;;;4983748;28;20057;-88
2021/05/09 08:19:13;;;;;;;3.30;1.25;;;20.50;68.40;;;;;;4988666;28;20026;-86
2021/05/09 08:21:39;;;;;;;3.00;1.15;;;20.70;68.70;;;;;;4987941;28;20022;-86
2021/05/09 08:24:04;;;;;;;2.90;1.08;;;21.00;66.70;;;;;;4989068;28;20485;-87
2021/05/09 08:26:30;;;;;;;5.68;1.00;;;21.30;65.80;;;;;;4990298;28;20471;-87
2021/05/09 08:28:55;;;;;;;1.98;0.70;;;21.40;65.20;;;;;;4988185;28;20023;-88
2021/05/09 08:31:21;;;;;;;1.73;0.90;;;21.70;65.30;;;;;;4986433;28;20026;-88
2021/05/09 08:33:48;;;;;;;3.00;0.85;;;22.00;65.00;;;;;;4981092;28;20084;-87
2021/05/09 08:36:15;;;;;;;5.88;1.25;;;22.20;63.60;;;;;;4982898;28;20028;-87
2021/05/09 08:38:40;;;;;;;3.33;1.13;;;22.30;63.60;;;;;;4986645;28;20541;-89
2021/05/09 08:41:06;;;;;;;5.55;1.80;;;22.30;62.60;;;;;;4992547;28;20057;-90
2021/05/09 08:43:31;;;;;;;2.55;1.15;;;22.10;61.50;;;;;;4984046;28;20034;-88
2021/05/09 08:45:59;;;;;;;2.45;1.15;;;21.90;62.40;;;;;;4990935;28;20037;-90
2021/05/09 08:48:26;;;;;;;4.00;1.17;;;21.70;62.60;;;;;;4978793;28;20033;-91
2021/05/09 08:50:52;;;;;;;1.55;0.68;;;21.80;63.30;;;;;;4986818;28;20023;-91
2021/05/09 08:53:18;;;;;;;3.33;1.27;;;21.80;63.50;;;;;;4986131;28;20030;-90
2021/05/09 08:55:44;;;;;;;2.22;1.13;;;21.90;62.70;;;;;;4986864;28;20077;-90
2021/05/09 08:58:11;;;;;;;4.57;1.48;;;21.90;63.60;;;;;;4993673;28;20038;-91
2021/05/09 09:00:37;;;;;;;3.08;1.48;;;22.00;63.10;;;;;;4980417;28;20054;-89
2021/05/09 09:03:04;;;;;;;4.03;1.38;;;22.00;62.50;;;;;;4989204;28;20077;-89
2021/05/09 09:05:50;;;;;;;3.40;1.77;;;22.00;62.10;;;;;;4986124;28;20091;-90
2021/05/09 09:08:16;;;;;;;2.03;1.13;;;21.80;62.50;;;;;;4998385;28;20025;-89
2021/05/09 09:10:49;;;;;;;3.00;2.20;;;21.70;63.30;;;;;;5012388;28;20039;-89
2021/05/09 09:13:28;;;;;;;6.10;1.88;;;21.70;63.70;;;;;;4987520;28;20478;-89
2021/05/09 09:15:59;;;;;;;6.13;2.13;;;21.80;63.80;;;;;;4983984;28;20034;-93
2021/05/09 09:18:44;;;;;;;3.40;1.90;;;22.00;63.70;;;;;;4989274;28;20076;-94
2021/05/09 09:21:24;;;;;;;4.57;2.25;;;22.20;63.50;;;;;;5004079;28;20041;-93
2021/05/09 09:24:09;;;;;;;2.50;1.77;;;22.40;63.40;;;;;;4987830;28;20039;-94
2021/05/09 09:26:42;;;;;;;3.13;2.00;;;22.40;63.40;;;;;;4985917;28;20027;-93
2021/05/09 09:29:30;;;;;;;4.38;1.70;;;22.40;63.20;;;;;;4987607;28;20061;-94
2021/05/09 09:32:06;;;;;;;5.13;2.00;;;22.30;63.10;;;;;;4985945;28;20030;-95
2021/05/09 09:34:39;;;;;;;5.47;2.60;;;22.10;63.60;;;;;;4996273;28;20089;-94
2021/05/09 09:37:05;;;;;;;4.85;2.05;;;22.10;64.70;;;;;;4985105;28;20030;-95
2021/05/09 09:39:55;;;;;;;3.13;2.05;;;22.10;65.20;;;;;;5005171;28;20668;-94
2021/05/09 09:42:40;;;;;;;3.38;1.75;;;22.10;64.80;;;;;;4982576;28;20042;-94
2021/05/09 09:45:37;;;;;;;3.22;1.77;;;22.10;65.20;;;;;;4998634;28;20094;-95
2021/05/09 09:48:04;;;;;;;2.70;1.70;;;22.30;65.30;;;;;;4988388;28;20518;-95
2021/05/09 09:50:49;;;;;;;8.73;3.28;;;22.40;64.80;;;;;;4990137;28;20082;-94
2021/05/09 09:53:28;;;;;;;4.93;2.20;;;22.50;64.80;;;;;;4985477;28;20038;-94
2021/05/09 09:56:03;;;;;;;4.60;2.10;;;22.50;64.40;;;;;;4990702;28;20122;-95
2021/05/09 09:58:57;;;;;;;4.15;2.00;;;22.50;65.70;;;;;;4998672;28;20113;-92
2021/05/09 10:01:36;;;;;;;3.97;1.80;;;22.80;65.30;;;;;;4983947;28;20443;-95
2021/05/09 10:04:05;;;;;;;2.53;1.45;;;23.10;64.70;;;;;;4982991;28;20506;-95
2021/05/09 10:06:31;;;;;;;4.80;1.95;;;23.30;64.40;;;;;;4988622;28;20031;-95
2021/05/09 10:08:58;;;;;;;3.28;1.63;;;23.50;65.30;;;;;;4988724;28;20433;-94
2021/05/09 10:11:28;;;;;;;5.32;1.25;;;23.70;64.40;;;;;;4987144;28;20034;-94
2021/05/09 10:13:53;;;;;;;3.65;1.00;;;24.00;63.40;;;;;;4989134;28;20505;-94
2021/05/09 10:16:21;;;;;;;4.90;1.17;;;24.10;63.20;;;;;;5010528;28;20031;-94
2021/05/09 10:18:50;;;;;;;7.85;1.30;;;24.30;62.60;;;;;;5086109;28;20119;-95
2021/05/09 10:21:16;;;;;;;2.88;1.00;;;24.30;62.10;;;;;;5022119;28;20035;-93
2021/05/09 10:24:07;;;;;;;3.53;0.95;;;24.20;61.70;;;;;;4990634;28;20050;-95
2021/05/09 10:26:42;;;;;;;4.28;1.08;;;24.20;61.70;;;;;;5027550;28;20410;-95
2021/05/09 10:29:07;;;;;;;2.33;1.10;;;24.20;61.70;;;;;;5049309;28;20038;-94
2021/05/09 10:31:33;;;;;;;2.78;1.00;;;24.30;61.60;;;;;;5036538;28;20031;-94
2021/05/09 10:33:58;;;;;;;5.70;1.08;;;24.20;61.80;;;;;;5017118;28;20081;-94
2021/05/09 10:36:24;;;;;;;6.68;1.35;;;24.20;61.70;;;;;;4992160;28;20034;-95
2021/05/09 10:39:18;;;;;;;1.70;0.70;;;24.30;61.70;;;;;;4992567;28;20163;-93
2021/05/09 10:41:52;;;;;;;4.32;1.00;;;24.50;61.80;;;;;;4992481;28;20125;-94
2021/05/09 10:44:49;;;;;;;3.33;1.02;;;24.50;61.50;;;;;;4991224;28;20482;-93
2021/05/09 10:47:19;;;;;;;5.13;1.35;;;24.50;61.00;;;;;;4980729;28;20571;-94
2021/05/09 10:50:19;;;;;;;5.00;1.95;;;24.30;61.30;;;;;;5000590;28;20704;-95
2021/05/09 10:52:46;;;;;;;6.38;1.15;;;24.10;62.20;;;;;;4989614;28;20041;-96
2021/05/09 10:55:41;;;;;;;3.67;1.35;;;24.10;62.30;;;;;;4983159;28;20029;-96
2021/05/09 10:58:09;;;;;;;4.07;0.85;;;24.20;62.70;;;;;;4993756;28;20025;-88
2021/05/09 11:00:56;;;;;;;1.80;0.73;;;24.20;62.10;;;;;;4996905;28;20022;-88
2021/05/09 11:03:37;;;;;;;2.10;0.85;;;24.20;60.50;;;;;;5018908;28;20087;-89
2021/05/09 11:06:11;;;;;;;2.27;0.70;;;24.10;60.50;;;;;;4987478;28;20037;-89
2021/05/09 11:08:42;;;;;;;4.20;0.90;;;24.00;60.00;;;;;;4991137;28;20042;-90
2021/05/09 11:11:18;;;;;;;1.70;0.80;;;24.00;59.80;;;;;;4988915;28;20026;-89
2021/05/09 11:13:59;;;;;;;4.47;0.88;;;23.90;59.90;;;;;;4988691;28;20470;-89
2021/05/09 11:16:32;;;;;;;1.52;0.80;;;23.90;60.30;;;;;;5005851;28;20050;-89
2021/05/09 11:19:02;;;;;;;3.55;0.80;;;24.00;60.60;;;;;;5013824;28;20035;-89
2021/05/09 11:21:32;;;;;;;2.08;0.93;;;24.20;61.00;;;;;;4984338;28;20027;-87
2021/05/09 11:23:59;;;;;;;2.13;0.70;;;24.40;60.50;;;;;;4984179;28;20038;-87
2021/05/09 11:26:27;;;;;;;3.47;0.75;;;24.40;59.40;;;;;;4989726;28;20397;-88
2021/05/09 11:29:20;;;;;;;3.88;1.00;;;24.30;59.30;;;;;;4985576;28;20027;-88
2021/05/09 11:31:50;;;;;;;2.60;0.80;;;24.30;60.30;;;;;;4982347;28;20027;-88
2021/05/09 11:34:17;;;;;;;1.92;0.85;;;24.30;60.60;;;;;;4987007;28;20022;-88
2021/05/09 11:36:46;;;;;;;3.53;0.68;;;24.50;61.00;;;;;;4983473;28;20022;-88
2021/05/09 11:39:20;;;;;;;3.88;0.98;;;24.60;60.00;;;;;;4981679;28;20026;-88
2021/05/09 11:41:50;;;;;;;3.85;0.70;;;24.70;59.70;;;;;;4979979;28;20027;-88
2021/05/09 11:44:17;;;;;;;2.05;1.00;;;24.60;59.20;;;;;;4987916;28;20107;-89
2021/05/09 11:46:42;;;;;;;3.15;0.77;;;24.50;59.10;;;;;;4988223;28;20058;-89
2021/05/09 11:49:20;;;;;;;2.65;0.90;;;24.40;59.10;;;;;;5001885;28;20057;-89
2021/05/09 11:51:54;;;;;;;2.08;0.90;;;24.30;59.40;;;;;;5025614;28;20365;-89
2021/05/09 11:54:21;;;;;;;3.58;0.95;;;24.10;59.80;;;;;;4988480;28;20030;-87
2021/05/09 11:56:56;;;;;;;2.55;0.90;;;24.00;60.50;;;;;;5011099;28;20033;-90
2021/05/09 11:59:36;;;;;;;2.58;0.80;;;23.80;60.60;;;;;;5002819;28;20050;-88
2021/05/09 12:02:04;;;;;;;3.70;0.80;;;23.60;60.40;;;;;;5002842;28;20046;-88
2021/05/09 12:04:30;;;;;;;2.50;0.80;;;23.50;60.70;;;;;;4985563;28;20058;-89
2021/05/09 12:06:58;;;;;;;2.85;0.80;;;23.40;61.00;;;;;;5002189;28;20023;-88
2021/05/09 12:09:24;;;;;;;2.10;0.88;;;23.30;61.00;;;;;;5003682;28;20505;-88
2021/05/09 12:11:51;;;;;;;1.90;0.75;;;23.30;61.20;;;;;;5005903;28;20427;-89
2021/05/09 12:14:17;;;;;;;1.92;0.80;;;23.30;61.60;;;;;;5025732;28;20075;-88
2021/05/09 12:16:47;;;;;;;1.75;1.00;;;23.30;61.60;;;;;;5008356;28;20024;-88
2021/05/09 12:19:13;;;;;;;3.50;0.80;;;23.30;61.70;;;;;;5054203;28;20107;-88
2021/05/09 12:21:52;;;;;;;2.70;0.65;;;23.30;61.80;;;;;;5005907;28;20042;-87
2021/05/09 12:24:18;;;;;;;2.63;0.60;;;23.30;61.50;;;;;;4994221;28;20051;-87
2021/05/09 12:27:03;;;;;;;3.15;0.68;;;23.30;61.10;;;;;;5047838;28;20036;-87
2021/05/09 12:29:29;;;;;;;1.17;0.55;;;23.30;60.40;;;;;;5017098;28;20023;-88
2021/05/09 12:32:34;;;;;;;2.50;0.70;;;23.30;60.40;;;;;;5017124;28;20073;-87
2021/05/09 12:35:10;;;;;;;4.93;0.93;;;23.40;60.10;;;;;;4991049;28;20037;-88
2021/05/09 12:37:57;;;;;;;2.67;0.60;;;23.40;60.20;;;;;;5004629;28;20645;-88
2021/05/09 12:40:36;;;;;;;2.15;0.50;;;23.30;60.60;;;;;;4994307;28;20070;-88
2021/05/09 12:43:02;;;;;;;1.70;0.63;;;23.20;61.80;;;;;;4990637;28;20601;-87
2021/05/09 12:45:57;;;;;;;2.63;1.13;;;23.10;62.30;;;;;;4994473;28;20046;-84
2021/05/09 12:48:30;;;;;;;3.50;1.45;;;23.00;63.00;;;;;;5026291;28;20028;-88
2021/05/09 12:50:56;;;;;;;4.80;1.25;;;23.00;63.90;;;;;;4988509;28;20488;-88
2021/05/09 12:53:40;;;;;;;2.95;0.77;;;23.00;64.10;;;;;;4985220;28;20110;-88